Adams Mills, Ohio
Current Conditions -  °F | °C
As of 8:53 PM on Tuesday 21 Oct 2014 (Local Time) from KZZV Reporting Station
Overcast Overcast  
Wind Chill: 41°   Ceiling: 1900
Heat Index: 46°   Visibility: 10mi
Dew Point: 40°   Wind: 9mph
Humidity: 79%   Direction: 320°NW
Pressure: 30.08"   Gusts: NA
Location:  40.1482°N, 82.0354°W
Report Text: KZZV 220053Z AUTO 32008KT 10SM OVC019 08/04 A3008 RMK AO2 SLP188 T00780044
Loading
Personal Weather Stations






























Interactive Weather Map
Tropical Storm Tracking
New forecast layout! Learn more

10-Day Weather Forecast

Advertisements
Track Severe Weather on mobile